createdAt,value
2022-09-16T00:00:24.053Z,2.03
2022-09-16T00:05:31.626Z,1.90
2022-09-16T00:10:39.087Z,1.80
2022-09-16T00:15:49.371Z,1.20
2022-09-16T00:20:56.299Z,1.30
2022-09-16T00:26:03.471Z,1.20
2022-09-16T00:31:10.433Z,1.40
2022-09-16T00:36:20.548Z,1.50
2022-09-16T00:41:32.148Z,1.30
2022-09-16T00:46:42.090Z,1.33
2022-09-16T00:51:52.235Z,1.20
2022-09-16T00:57:01.454Z,1.17
2022-09-16T01:02:11.508Z,1.30
2022-09-16T01:07:21.802Z,1.47
2022-09-16T01:12:30.689Z,1.37
2022-09-16T01:17:40.500Z,1.60
2022-09-16T01:22:50.390Z,1.50
2022-09-16T01:28:00.313Z,1.20
2022-09-16T01:33:09.000Z,1.60
2022-09-16T01:38:17.106Z,1.30
2022-09-16T01:43:26.868Z,1.70
2022-09-16T01:48:36.225Z,1.37
2022-09-16T01:53:44.224Z,1.90
2022-09-16T01:58:54.073Z,1.83
2022-09-16T02:04:03.876Z,2.00
2022-09-16T02:09:13.683Z,2.87
2022-09-16T02:14:23.522Z,1.80
2022-09-16T02:19:33.295Z,1.77
2022-09-16T02:24:41.850Z,1.90
2022-09-16T02:29:51.620Z,2.00
2022-09-16T02:35:00.533Z,1.73
2022-09-16T02:40:10.385Z,1.50
2022-09-16T02:45:17.830Z,1.53
2022-09-16T02:50:27.582Z,1.70
2022-09-16T02:55:37.896Z,1.70
2022-09-16T03:00:47.943Z,1.63
2022-09-16T03:05:57.811Z,2.00
2022-09-16T03:11:07.640Z,2.60
2022-09-16T03:16:17.529Z,1.70
2022-09-16T03:21:27.431Z,1.70
2022-09-16T03:26:37.223Z,1.70
2022-09-16T03:31:45.264Z,1.83
2022-09-16T03:36:55.109Z,2.60
2022-09-16T03:42:04.477Z,2.30
2022-09-16T03:47:11.764Z,2.10
2022-09-16T03:52:20.245Z,2.23
2022-09-16T03:57:28.480Z,1.97
2022-09-16T04:02:35.923Z,3.10
2022-09-16T04:07:43.032Z,3.70
2022-09-16T04:12:50.024Z,3.40
2022-09-16T04:17:56.930Z,3.10
2022-09-16T04:23:03.903Z,5.27
2022-09-16T04:28:10.885Z,3.57
2022-09-16T04:33:17.856Z,3.17
2022-09-16T04:38:24.815Z,4.00
2022-09-16T04:43:31.945Z,7.83
2022-09-16T04:48:39.537Z,4.77
2022-09-16T04:53:46.957Z,2.80
2022-09-16T04:58:56.468Z,2.67
2022-09-16T05:04:06.490Z,4.47
2022-09-16T05:09:14.037Z,4.67
2022-09-16T05:14:20.975Z,4.50
2022-09-16T05:19:27.851Z,4.50
2022-09-16T05:24:36.822Z,5.03
2022-09-16T05:29:43.992Z,2.60
2022-09-16T05:34:51.053Z,3.30
2022-09-16T05:39:58.023Z,3.47
2022-09-16T05:45:05.050Z,3.50
2022-09-16T05:50:12.026Z,4.10
2022-09-16T05:55:18.820Z,3.90
2022-09-16T06:00:25.940Z,4.93
2022-09-16T06:05:33.311Z,3.53
2022-09-16T06:10:42.463Z,5.90
2022-09-16T06:15:51.785Z,4.07
2022-09-16T06:20:59.618Z,2.90
2022-09-16T06:26:09.874Z,1.80
2022-09-16T06:31:19.915Z,2.20
2022-09-16T06:36:29.789Z,1.60
2022-09-16T06:41:36.703Z,1.57
2022-09-16T06:46:44.742Z,1.80
2022-09-16T06:51:52.152Z,1.60
2022-09-16T06:56:59.883Z,1.67
2022-09-16T07:02:06.802Z,2.00
2022-09-16T07:07:15.352Z,2.10
2022-09-16T07:12:22.343Z,2.50
2022-09-16T07:17:30.534Z,3.50
2022-09-16T07:22:37.574Z,4.17
2022-09-16T07:27:44.469Z,3.00
2022-09-16T07:32:51.565Z,4.63
2022-09-16T07:37:58.908Z,4.40
2022-09-16T07:43:05.764Z,4.00
2022-09-16T07:48:12.773Z,3.00
2022-09-16T07:53:19.854Z,3.10
2022-09-16T07:58:26.928Z,4.10
2022-09-16T08:03:36.358Z,4.40
2022-09-16T08:08:44.243Z,3.10
2022-09-16T08:13:52.680Z,3.60
2022-09-16T08:19:00.465Z,3.40
2022-09-16T08:24:07.567Z,3.53
2022-09-16T08:29:14.991Z,3.40
2022-09-16T08:34:22.221Z,3.00
2022-09-16T08:39:29.113Z,3.80
2022-09-16T08:44:39.011Z,2.90
2022-09-16T08:49:57.614Z,2.50
2022-09-16T08:55:07.539Z,2.40
2022-09-16T09:00:16.964Z,2.43
2022-09-16T09:05:25.187Z,2.07
2022-09-16T09:10:35.002Z,2.23
2022-09-16T09:15:44.647Z,2.40
2022-09-16T09:20:52.787Z,2.70
2022-09-16T09:26:02.630Z,2.57
2022-09-16T09:31:12.570Z,3.10
2022-09-16T09:36:23.231Z,3.07
2022-09-16T09:41:33.033Z,3.07
2022-09-16T09:46:43.009Z,2.90
2022-09-16T09:51:52.937Z,2.77
2022-09-16T09:57:02.725Z,2.70
2022-09-16T10:02:13.552Z,2.87
2022-09-16T10:07:24.930Z,3.13
2022-09-16T10:12:34.599Z,2.90
2022-09-16T10:17:42.928Z,2.90
2022-09-16T10:22:52.726Z,2.73
2022-09-16T10:28:02.343Z,3.00
2022-09-16T10:33:12.271Z,2.73
2022-09-16T10:38:22.377Z,2.97
2022-09-16T10:43:31.894Z,2.60
2022-09-16T10:48:40.208Z,2.70
2022-09-16T10:53:49.347Z,2.50
2022-09-16T10:59:00.247Z,2.70
2022-09-16T11:04:10.340Z,2.70
2022-09-16T11:09:20.316Z,2.10
2022-09-16T11:14:30.060Z,2.20
2022-09-16T11:19:39.828Z,2.40
2022-09-16T11:24:49.279Z,2.40
2022-09-16T11:29:59.054Z,2.57
2022-09-16T11:35:09.675Z,2.40
2022-09-16T11:40:19.487Z,2.10
2022-09-16T11:45:30.670Z,2.50
2022-09-16T11:50:40.489Z,2.27
2022-09-16T11:55:48.647Z,2.13
2022-09-16T12:00:58.185Z,2.20
2022-09-16T12:06:08.289Z,2.20
2022-09-16T12:11:18.033Z,1.90
2022-09-16T12:16:30.600Z,2.13
2022-09-16T12:21:40.287Z,2.20
2022-09-16T12:26:50.850Z,1.87
2022-09-16T12:32:01.432Z,2.10
2022-09-16T12:37:11.004Z,2.33
2022-09-16T12:42:20.998Z,2.07
2022-09-16T12:47:32.198Z,2.20
2022-09-16T12:52:40.195Z,2.03
2022-09-16T12:57:50.026Z,2.07
2022-09-16T13:03:01.179Z,1.97
2022-09-16T13:08:11.492Z,2.13
2022-09-16T13:13:21.280Z,2.30
2022-09-16T13:18:31.161Z,2.30
2022-09-16T13:23:41.000Z,2.17
2022-09-16T13:28:49.082Z,1.97
2022-09-16T13:33:58.009Z,2.10
2022-09-16T13:39:07.957Z,2.07
2022-09-16T13:44:17.768Z,1.90
2022-09-16T13:49:28.456Z,2.03
2022-09-16T13:54:53.597Z,1.90
2022-09-16T13:59:49.724Z,1.97
2022-09-16T14:04:57.662Z,2.00
2022-09-16T14:10:07.583Z,2.20
2022-09-16T14:15:16.747Z,1.97
2022-09-16T14:20:26.268Z,2.13
2022-09-16T14:25:36.602Z,2.17
2022-09-16T14:30:46.488Z,2.20
2022-09-16T14:35:56.870Z,2.20
2022-09-16T14:41:06.765Z,2.07
2022-09-16T14:46:13.652Z,2.23
2022-09-16T14:51:23.262Z,2.30
2022-09-16T14:56:30.456Z,2.07
2022-09-16T15:01:37.456Z,2.30
2022-09-16T15:06:49.026Z,1.97
2022-09-16T15:11:59.071Z,2.20
2022-09-16T15:17:06.034Z,2.30
2022-09-16T15:22:15.561Z,2.40
2022-09-16T15:27:24.907Z,2.40
2022-09-16T15:32:32.774Z,2.30
2022-09-16T15:37:39.678Z,2.40
2022-09-16T15:42:47.164Z,2.30
2022-09-16T15:47:56.967Z,2.90
2022-09-16T15:53:04.947Z,2.17
2022-09-16T15:58:13.009Z,2.20
2022-09-16T16:03:21.650Z,2.27
2022-09-16T16:08:31.623Z,2.43
2022-09-16T16:13:39.035Z,2.20
2022-09-16T16:18:47.300Z,2.23
2022-09-16T16:23:54.221Z,2.47
2022-09-16T16:29:01.099Z,2.30
2022-09-16T16:34:08.260Z,2.30
2022-09-16T16:39:15.141Z,2.30
2022-09-16T16:44:24.641Z,2.30
2022-09-16T16:49:31.445Z,2.17
2022-09-16T16:54:38.419Z,2.10
2022-09-16T16:59:45.260Z,1.87
2022-09-16T17:04:52.091Z,2.20
2022-09-16T17:09:58.928Z,2.30
2022-09-16T17:15:06.235Z,2.00
2022-09-16T17:20:13.063Z,2.30
2022-09-16T17:25:20.717Z,2.30
2022-09-16T17:30:28.153Z,2.20
2022-09-16T17:35:35.821Z,2.60
2022-09-16T17:40:42.643Z,2.50
2022-09-16T17:45:51.121Z,2.30
2022-09-16T17:50:58.674Z,2.47
2022-09-16T17:56:08.500Z,2.30
2022-09-16T18:01:16.711Z,2.90
2022-09-16T18:06:25.626Z,2.33
2022-09-16T18:11:32.615Z,2.53
2022-09-16T18:16:39.902Z,2.60
2022-09-16T18:21:46.972Z,2.27
2022-09-16T18:26:53.809Z,2.30
2022-09-16T18:32:00.661Z,2.40
2022-09-16T18:37:08.614Z,2.30
2022-09-16T18:42:15.490Z,2.30
2022-09-16T18:47:22.560Z,2.60
2022-09-16T18:52:29.870Z,2.47
2022-09-16T18:57:36.710Z,2.60
2022-09-16T19:02:43.600Z,2.47
2022-09-16T19:07:50.488Z,2.60
2022-09-16T19:12:57.972Z,2.53
2022-09-16T19:18:04.930Z,2.50
2022-09-16T19:23:11.768Z,2.50
2022-09-16T19:28:19.410Z,2.90
2022-09-16T19:33:26.321Z,2.63
2022-09-16T19:38:33.287Z,2.50
2022-09-16T19:43:40.789Z,2.60
2022-09-16T19:48:49.766Z,2.40
2022-09-16T19:53:58.638Z,2.70
2022-09-16T19:59:06.416Z,2.50
2022-09-16T20:04:13.300Z,2.90
2022-09-16T20:09:21.003Z,2.90
2022-09-16T20:14:29.461Z,2.60
2022-09-16T20:19:36.364Z,2.90
2022-09-16T20:24:43.347Z,2.73
2022-09-16T20:29:50.218Z,2.60
2022-09-16T20:34:57.074Z,2.93
2022-09-16T20:40:04.278Z,2.80
2022-09-16T20:45:11.395Z,2.80
2022-09-16T20:50:18.320Z,2.90
2022-09-16T20:55:26.951Z,2.70
2022-09-16T21:00:33.816Z,2.80
2022-09-16T21:05:40.682Z,2.97
2022-09-16T21:10:48.041Z,2.60
2022-09-16T21:15:57.635Z,2.77
2022-09-16T21:21:26.033Z,2.70
2022-09-16T21:26:34.820Z,2.77
2022-09-16T21:31:43.481Z,2.80
2022-09-16T21:36:52.107Z,3.03
2022-09-16T21:41:59.074Z,3.07
2022-09-16T21:47:07.498Z,2.97
2022-09-16T21:52:14.397Z,2.67
2022-09-16T21:57:21.187Z,2.77
2022-09-16T22:02:29.210Z,2.73
2022-09-16T22:07:36.353Z,2.70
2022-09-16T22:12:43.292Z,2.70
2022-09-16T22:17:52.113Z,2.87
2022-09-16T22:22:59.012Z,2.83
2022-09-16T22:28:06.100Z,2.73
2022-09-16T22:33:13.214Z,2.80
2022-09-16T22:38:20.150Z,3.07
2022-09-16T22:43:27.027Z,2.57
2022-09-16T22:48:34.189Z,2.53
2022-09-16T22:53:42.001Z,2.70
2022-09-16T22:58:51.922Z,2.73
2022-09-16T23:04:01.719Z,3.10
2022-09-16T23:09:10.280Z,2.80
2022-09-16T23:14:20.360Z,3.20
2022-09-16T23:19:27.219Z,3.03
2022-09-16T23:24:34.022Z,2.97
2022-09-16T23:29:40.906Z,2.90
2022-09-16T23:34:47.852Z,2.90
2022-09-16T23:39:54.771Z,2.80
2022-09-16T23:45:01.667Z,2.90
2022-09-16T23:50:10.352Z,3.40
2022-09-16T23:55:17.238Z,3.30
